sensor_id;sensor_type;location;lat;lon;timestamp;P1;durP1;ratioP1;P2;durP2;ratioP2
10653;SDS011;5375;51.250;6.776;2022-12-18T00:01:36;8.97;;;5.70;;
10653;SDS011;5375;51.250;6.776;2022-12-18T00:04:03;6.80;;;5.30;;
10653;SDS011;5375;51.250;6.776;2022-12-18T00:06:30;6.77;;;5.60;;
10653;SDS011;5375;51.250;6.776;2022-12-18T00:08:57;7.33;;;5.47;;
10653;SDS011;5375;51.250;6.776;2022-12-18T00:11:25;7.03;;;5.33;;
10653;SDS011;5375;51.250;6.776;2022-12-18T00:13:53;7.30;;;5.53;;
10653;SDS011;5375;51.250;6.776;2022-12-18T00:16:20;7.80;;;5.93;;
10653;SDS011;5375;51.250;6.776;2022-12-18T00:18:47;5.73;;;5.07;;
10653;SDS011;5375;51.250;6.776;2022-12-18T00:21:14;8.17;;;5.90;;
10653;SDS011;5375;51.250;6.776;2022-12-18T00:23:40;7.23;;;5.67;;
10653;SDS011;5375;51.250;6.776;2022-12-18T00:26:16;6.03;;;5.33;;
10653;SDS011;5375;51.250;6.776;2022-12-18T00:28:43;6.77;;;5.30;;
10653;SDS011;5375;51.250;6.776;2022-12-18T00:31:10;7.27;;;5.30;;
10653;SDS011;5375;51.250;6.776;2022-12-18T00:33:36;6.53;;;5.30;;
10653;SDS011;5375;51.250;6.776;2022-12-18T00:36:03;6.97;;;5.43;;
10653;SDS011;5375;51.250;6.776;2022-12-18T00:38:30;7.47;;;5.00;;
10653;SDS011;5375;51.250;6.776;2022-12-18T00:40:56;7.10;;;5.20;;
10653;SDS011;5375;51.250;6.776;2022-12-18T00:43:22;6.00;;;5.30;;
10653;SDS011;5375;51.250;6.776;2022-12-18T00:45:48;6.83;;;5.17;;
10653;SDS011;5375;51.250;6.776;2022-12-18T00:48:14;6.27;;;4.97;;
10653;SDS011;5375;51.250;6.776;2022-12-18T00:50:40;7.27;;;5.40;;
10653;SDS011;5375;51.250;6.776;2022-12-18T00:53:06;6.83;;;4.93;;
10653;SDS011;5375;51.250;6.776;2022-12-18T00:55:32;5.73;;;4.93;;
10653;SDS011;5375;51.250;6.776;2022-12-18T00:57:58;5.60;;;5.07;;
10653;SDS011;5375;51.250;6.776;2022-12-18T01:00:24;5.70;;;4.73;;
10653;SDS011;5375;51.250;6.776;2022-12-18T01:02:50;5.93;;;4.90;;
10653;SDS011;5375;51.250;6.776;2022-12-18T01:05:16;6.73;;;5.27;;
10653;SDS011;5375;51.250;6.776;2022-12-18T01:07:42;7.30;;;5.27;;
10653;SDS011;5375;51.250;6.776;2022-12-18T01:10:09;5.97;;;4.87;;
10653;SDS011;5375;51.250;6.776;2022-12-18T01:12:35;6.30;;;4.93;;
10653;SDS011;5375;51.250;6.776;2022-12-18T01:15:02;6.60;;;4.90;;
10653;SDS011;5375;51.250;6.776;2022-12-18T01:17:28;6.63;;;4.83;;
10653;SDS011;5375;51.250;6.776;2022-12-18T01:19:54;6.47;;;5.10;;
10653;SDS011;5375;51.250;6.776;2022-12-18T01:22:20;4.83;;;4.33;;
10653;SDS011;5375;51.250;6.776;2022-12-18T01:24:46;5.10;;;4.60;;
10653;SDS011;5375;51.250;6.776;2022-12-18T01:27:12;6.40;;;4.87;;
10653;SDS011;5375;51.250;6.776;2022-12-18T01:29:38;6.80;;;4.93;;
10653;SDS011;5375;51.250;6.776;2022-12-18T01:32:04;5.17;;;4.33;;
10653;SDS011;5375;51.250;6.776;2022-12-18T01:34:30;5.87;;;4.53;;
10653;SDS011;5375;51.250;6.776;2022-12-18T01:36:56;6.03;;;4.37;;
10653;SDS011;5375;51.250;6.776;2022-12-18T01:39:22;5.40;;;4.53;;
10653;SDS011;5375;51.250;6.776;2022-12-18T01:41:48;6.60;;;4.40;;
10653;SDS011;5375;51.250;6.776;2022-12-18T01:47:13;5.50;;;4.50;;
10653;SDS011;5375;51.250;6.776;2022-12-18T01:49:40;5.40;;;4.23;;
10653;SDS011;5375;51.250;6.776;2022-12-18T01:52:06;5.47;;;4.40;;
10653;SDS011;5375;51.250;6.776;2022-12-18T01:54:32;6.33;;;4.67;;
10653;SDS011;5375;51.250;6.776;2022-12-18T01:56:59;5.87;;;4.80;;
10653;SDS011;5375;51.250;6.776;2022-12-18T01:59:25;5.40;;;4.40;;
10653;SDS011;5375;51.250;6.776;2022-12-18T02:01:52;6.30;;;4.63;;
10653;SDS011;5375;51.250;6.776;2022-12-18T02:04:22;5.53;;;4.00;;
10653;SDS011;5375;51.250;6.776;2022-12-18T02:06:50;5.27;;;4.20;;
10653;SDS011;5375;51.250;6.776;2022-12-18T02:09:23;5.50;;;4.30;;
10653;SDS011;5375;51.250;6.776;2022-12-18T02:14:24;5.43;;;4.23;;
10653;SDS011;5375;51.250;6.776;2022-12-18T02:24:35;6.23;;;4.47;;
10653;SDS011;5375;51.250;6.776;2022-12-18T02:27:05;5.73;;;4.10;;
10653;SDS011;5375;51.250;6.776;2022-12-18T02:29:33;5.20;;;4.20;;
10653;SDS011;5375;51.250;6.776;2022-12-18T02:32:00;4.50;;;3.63;;
10653;SDS011;5375;51.250;6.776;2022-12-18T02:34:29;5.93;;;4.30;;
10653;SDS011;5375;51.250;6.776;2022-12-18T02:36:55;5.13;;;4.20;;
10653;SDS011;5375;51.250;6.776;2022-12-18T02:39:22;5.53;;;4.30;;
10653;SDS011;5375;51.250;6.776;2022-12-18T02:41:49;4.37;;;3.97;;
10653;SDS011;5375;51.250;6.776;2022-12-18T02:44:16;4.60;;;3.70;;
10653;SDS011;5375;51.250;6.776;2022-12-18T02:46:46;6.23;;;3.90;;
10653;SDS011;5375;51.250;6.776;2022-12-18T02:51:47;4.80;;;3.93;;
10653;SDS011;5375;51.250;6.776;2022-12-18T02:54:18;4.33;;;3.60;;
10653;SDS011;5375;51.250;6.776;2022-12-18T02:56:50;4.27;;;3.80;;
10653;SDS011;5375;51.250;6.776;2022-12-18T02:59:18;5.30;;;4.10;;
10653;SDS011;5375;51.250;6.776;2022-12-18T03:06:53;4.80;;;3.70;;
10653;SDS011;5375;51.250;6.776;2022-12-18T03:09:31;5.47;;;3.80;;
10653;SDS011;5375;51.250;6.776;2022-12-18T03:12:12;5.87;;;3.80;;
10653;SDS011;5375;51.250;6.776;2022-12-18T03:14:55;4.10;;;3.50;;
10653;SDS011;5375;51.250;6.776;2022-12-18T03:17:22;4.53;;;3.50;;
10653;SDS011;5375;51.250;6.776;2022-12-18T03:19:50;5.20;;;3.90;;
10653;SDS011;5375;51.250;6.776;2022-12-18T03:22:17;4.30;;;3.90;;
10653;SDS011;5375;51.250;6.776;2022-12-18T03:24:44;6.37;;;3.90;;
10653;SDS011;5375;51.250;6.776;2022-12-18T03:27:13;4.10;;;3.70;;
10653;SDS011;5375;51.250;6.776;2022-12-18T03:29:43;4.53;;;3.50;;
10653;SDS011;5375;51.250;6.776;2022-12-18T03:32:18;5.33;;;3.70;;
10653;SDS011;5375;51.250;6.776;2022-12-18T03:34:47;10.23;;;4.17;;
10653;SDS011;5375;51.250;6.776;2022-12-18T03:37:14;14.50;;;3.73;;
10653;SDS011;5375;51.250;6.776;2022-12-18T03:39:40;9.27;;;4.00;;
10653;SDS011;5375;51.250;6.776;2022-12-18T03:42:18;5.20;;;3.47;;
10653;SDS011;5375;51.250;6.776;2022-12-18T03:47:30;7.50;;;4.00;;
10653;SDS011;5375;51.250;6.776;2022-12-18T03:50:08;6.40;;;3.27;;
10653;SDS011;5375;51.250;6.776;2022-12-18T03:52:38;4.03;;;3.53;;
10653;SDS011;5375;51.250;6.776;2022-12-18T03:55:07;4.63;;;3.50;;
10653;SDS011;5375;51.250;6.776;2022-12-18T03:57:34;9.97;;;3.90;;
10653;SDS011;5375;51.250;6.776;2022-12-18T04:00:11;4.53;;;3.50;;
10653;SDS011;5375;51.250;6.776;2022-12-18T04:02:38;5.17;;;3.73;;
10653;SDS011;5375;51.250;6.776;2022-12-18T04:05:06;4.87;;;4.00;;
10653;SDS011;5375;51.250;6.776;2022-12-18T04:07:33;5.03;;;3.90;;
10653;SDS011;5375;51.250;6.776;2022-12-18T04:09:59;5.87;;;3.77;;
10653;SDS011;5375;51.250;6.776;2022-12-18T04:12:27;5.07;;;3.57;;
10653;SDS011;5375;51.250;6.776;2022-12-18T04:14:54;4.57;;;3.43;;
10653;SDS011;5375;51.250;6.776;2022-12-18T04:17:20;4.27;;;3.50;;
10653;SDS011;5375;51.250;6.776;2022-12-18T04:19:47;5.10;;;3.80;;
10653;SDS011;5375;51.250;6.776;2022-12-18T04:22:13;5.77;;;3.40;;
10653;SDS011;5375;51.250;6.776;2022-12-18T04:24:39;4.70;;;3.70;;
10653;SDS011;5375;51.250;6.776;2022-12-18T04:27:05;5.37;;;3.37;;
10653;SDS011;5375;51.250;6.776;2022-12-18T04:29:31;4.20;;;3.50;;
10653;SDS011;5375;51.250;6.776;2022-12-18T04:31:57;4.57;;;3.60;;
10653;SDS011;5375;51.250;6.776;2022-12-18T04:34:23;4.97;;;3.73;;
10653;SDS011;5375;51.250;6.776;2022-12-18T04:36:49;4.13;;;3.20;;
10653;SDS011;5375;51.250;6.776;2022-12-18T04:39:16;3.43;;;3.13;;
10653;SDS011;5375;51.250;6.776;2022-12-18T04:41:42;4.10;;;3.50;;
10653;SDS011;5375;51.250;6.776;2022-12-18T04:44:08;5.87;;;3.60;;
10653;SDS011;5375;51.250;6.776;2022-12-18T04:46:34;4.33;;;3.43;;
10653;SDS011;5375;51.250;6.776;2022-12-18T04:49:00;5.13;;;3.57;;
10653;SDS011;5375;51.250;6.776;2022-12-18T04:51:26;4.60;;;3.43;;
10653;SDS011;5375;51.250;6.776;2022-12-18T04:53:52;4.17;;;3.33;;
10653;SDS011;5375;51.250;6.776;2022-12-18T04:56:18;4.97;;;3.53;;
10653;SDS011;5375;51.250;6.776;2022-12-18T04:58:44;7.70;;;3.47;;
10653;SDS011;5375;51.250;6.776;2022-12-18T05:01:11;5.23;;;3.20;;
10653;SDS011;5375;51.250;6.776;2022-12-18T05:03:37;4.50;;;3.20;;
10653;SDS011;5375;51.250;6.776;2022-12-18T05:06:04;10.73;;;3.63;;
10653;SDS011;5375;51.250;6.776;2022-12-18T05:08:30;16.80;;;3.57;;
10653;SDS011;5375;51.250;6.776;2022-12-18T05:11:01;8.20;;;3.50;;
10653;SDS011;5375;51.250;6.776;2022-12-18T05:13:27;14.87;;;3.93;;
10653;SDS011;5375;51.250;6.776;2022-12-18T05:15:53;21.77;;;4.10;;
10653;SDS011;5375;51.250;6.776;2022-12-18T05:18:19;8.47;;;3.43;;
10653;SDS011;5375;51.250;6.776;2022-12-18T05:20:45;20.90;;;4.23;;
10653;SDS011;5375;51.250;6.776;2022-12-18T05:23:12;11.17;;;3.80;;
10653;SDS011;5375;51.250;6.776;2022-12-18T05:25:38;14.73;;;3.80;;
10653;SDS011;5375;51.250;6.776;2022-12-18T05:28:04;12.00;;;3.50;;
10653;SDS011;5375;51.250;6.776;2022-12-18T05:30:30;14.93;;;3.93;;
10653;SDS011;5375;51.250;6.776;2022-12-18T05:32:56;16.20;;;3.27;;
10653;SDS011;5375;51.250;6.776;2022-12-18T05:35:22;7.53;;;3.10;;
10653;SDS011;5375;51.250;6.776;2022-12-18T05:37:48;11.90;;;3.40;;
10653;SDS011;5375;51.250;6.776;2022-12-18T05:40:14;13.57;;;2.73;;
10653;SDS011;5375;51.250;6.776;2022-12-18T05:42:40;16.00;;;3.07;;
10653;SDS011;5375;51.250;6.776;2022-12-18T05:45:06;6.87;;;2.87;;
10653;SDS011;5375;51.250;6.776;2022-12-18T05:47:33;11.63;;;2.93;;
10653;SDS011;5375;51.250;6.776;2022-12-18T05:49:59;6.37;;;3.00;;
10653;SDS011;5375;51.250;6.776;2022-12-18T05:52:25;6.80;;;3.20;;
10653;SDS011;5375;51.250;6.776;2022-12-18T05:54:51;11.47;;;3.10;;
10653;SDS011;5375;51.250;6.776;2022-12-18T05:57:17;4.60;;;2.87;;
10653;SDS011;5375;51.250;6.776;2022-12-18T05:59:46;4.97;;;3.10;;
10653;SDS011;5375;51.250;6.776;2022-12-18T06:02:12;6.83;;;2.87;;
10653;SDS011;5375;51.250;6.776;2022-12-18T06:04:38;3.87;;;2.70;;
10653;SDS011;5375;51.250;6.776;2022-12-18T06:07:04;5.80;;;2.73;;
10653;SDS011;5375;51.250;6.776;2022-12-18T06:09:30;4.80;;;2.97;;
10653;SDS011;5375;51.250;6.776;2022-12-18T06:11:56;4.00;;;2.73;;
10653;SDS011;5375;51.250;6.776;2022-12-18T06:14:23;4.53;;;2.77;;
10653;SDS011;5375;51.250;6.776;2022-12-18T06:16:50;4.73;;;2.93;;
10653;SDS011;5375;51.250;6.776;2022-12-18T06:19:17;4.07;;;2.93;;
10653;SDS011;5375;51.250;6.776;2022-12-18T06:21:43;3.70;;;2.77;;
10653;SDS011;5375;51.250;6.776;2022-12-18T06:24:09;3.53;;;2.93;;
10653;SDS011;5375;51.250;6.776;2022-12-18T06:26:36;3.03;;;2.37;;
10653;SDS011;5375;51.250;6.776;2022-12-18T06:29:02;3.57;;;2.80;;
10653;SDS011;5375;51.250;6.776;2022-12-18T06:31:28;7.20;;;2.97;;
10653;SDS011;5375;51.250;6.776;2022-12-18T06:33:55;5.40;;;2.80;;
10653;SDS011;5375;51.250;6.776;2022-12-18T06:36:21;3.47;;;2.77;;
10653;SDS011;5375;51.250;6.776;2022-12-18T06:38:47;5.70;;;2.70;;
10653;SDS011;5375;51.250;6.776;2022-12-18T06:41:14;4.70;;;2.53;;
10653;SDS011;5375;51.250;6.776;2022-12-18T06:43:40;4.53;;;2.90;;
10653;SDS011;5375;51.250;6.776;2022-12-18T06:46:06;4.97;;;3.00;;
10653;SDS011;5375;51.250;6.776;2022-12-18T06:48:32;4.10;;;2.43;;
10653;SDS011;5375;51.250;6.776;2022-12-18T06:50:58;3.37;;;2.47;;
10653;SDS011;5375;51.250;6.776;2022-12-18T06:53:25;3.77;;;2.83;;
10653;SDS011;5375;51.250;6.776;2022-12-18T06:55:51;3.07;;;2.40;;
10653;SDS011;5375;51.250;6.776;2022-12-18T06:58:17;3.53;;;2.50;;
10653;SDS011;5375;51.250;6.776;2022-12-18T07:00:43;3.40;;;2.83;;
10653;SDS011;5375;51.250;6.776;2022-12-18T07:03:09;3.47;;;2.83;;
10653;SDS011;5375;51.250;6.776;2022-12-18T07:05:39;3.97;;;2.70;;
10653;SDS011;5375;51.250;6.776;2022-12-18T07:08:05;3.00;;;2.50;;
10653;SDS011;5375;51.250;6.776;2022-12-18T07:10:31;3.63;;;2.70;;
10653;SDS011;5375;51.250;6.776;2022-12-18T07:12:57;2.73;;;2.30;;
10653;SDS011;5375;51.250;6.776;2022-12-18T07:15:23;2.87;;;2.47;;
10653;SDS011;5375;51.250;6.776;2022-12-18T07:17:49;3.30;;;2.80;;
10653;SDS011;5375;51.250;6.776;2022-12-18T07:20:15;2.93;;;2.43;;
10653;SDS011;5375;51.250;6.776;2022-12-18T07:22:41;2.90;;;2.43;;
10653;SDS011;5375;51.250;6.776;2022-12-18T07:25:07;3.70;;;2.77;;
10653;SDS011;5375;51.250;6.776;2022-12-18T07:27:33;2.87;;;2.53;;
10653;SDS011;5375;51.250;6.776;2022-12-18T07:29:59;3.67;;;2.23;;
10653;SDS011;5375;51.250;6.776;2022-12-18T07:32:25;4.13;;;2.63;;
10653;SDS011;5375;51.250;6.776;2022-12-18T07:34:51;3.17;;;2.50;;
10653;SDS011;5375;51.250;6.776;2022-12-18T07:37:17;4.43;;;2.50;;
10653;SDS011;5375;51.250;6.776;2022-12-18T07:39:43;2.93;;;2.33;;
10653;SDS011;5375;51.250;6.776;2022-12-18T07:42:09;3.27;;;2.40;;
10653;SDS011;5375;51.250;6.776;2022-12-18T07:44:54;3.20;;;2.53;;
10653;SDS011;5375;51.250;6.776;2022-12-18T07:47:20;3.33;;;2.53;;
10653;SDS011;5375;51.250;6.776;2022-12-18T07:49:46;2.83;;;2.27;;
10653;SDS011;5375;51.250;6.776;2022-12-18T07:52:12;4.13;;;2.47;;
10653;SDS011;5375;51.250;6.776;2022-12-18T07:54:38;3.67;;;2.77;;
10653;SDS011;5375;51.250;6.776;2022-12-18T07:57:05;4.90;;;2.87;;
10653;SDS011;5375;51.250;6.776;2022-12-18T07:59:31;4.13;;;2.63;;
10653;SDS011;5375;51.250;6.776;2022-12-18T08:01:57;2.37;;;2.13;;
10653;SDS011;5375;51.250;6.776;2022-12-18T08:04:23;3.60;;;2.63;;
10653;SDS011;5375;51.250;6.776;2022-12-18T08:06:49;3.33;;;2.40;;
10653;SDS011;5375;51.250;6.776;2022-12-18T08:09:16;3.90;;;2.60;;
10653;SDS011;5375;51.250;6.776;2022-12-18T08:11:42;3.63;;;2.70;;
10653;SDS011;5375;51.250;6.776;2022-12-18T08:14:08;4.13;;;2.70;;
10653;SDS011;5375;51.250;6.776;2022-12-18T08:16:34;5.23;;;2.70;;
10653;SDS011;5375;51.250;6.776;2022-12-18T08:19:01;3.90;;;2.70;;
10653;SDS011;5375;51.250;6.776;2022-12-18T08:21:28;3.83;;;2.70;;
10653;SDS011;5375;51.250;6.776;2022-12-18T08:23:55;4.80;;;2.80;;
10653;SDS011;5375;51.250;6.776;2022-12-18T08:26:22;3.17;;;2.47;;
10653;SDS011;5375;51.250;6.776;2022-12-18T08:28:48;4.13;;;2.73;;
10653;SDS011;5375;51.250;6.776;2022-12-18T08:31:14;5.10;;;2.73;;
10653;SDS011;5375;51.250;6.776;2022-12-18T08:33:40;4.07;;;2.80;;
10653;SDS011;5375;51.250;6.776;2022-12-18T08:36:08;6.40;;;2.80;;
10653;SDS011;5375;51.250;6.776;2022-12-18T08:38:34;3.67;;;2.37;;
10653;SDS011;5375;51.250;6.776;2022-12-18T08:43:26;4.80;;;2.43;;
10653;SDS011;5375;51.250;6.776;2022-12-18T08:46:11;3.40;;;2.53;;
10653;SDS011;5375;51.250;6.776;2022-12-18T08:48:37;3.70;;;2.40;;
10653;SDS011;5375;51.250;6.776;2022-12-18T08:51:03;3.30;;;2.17;;
10653;SDS011;5375;51.250;6.776;2022-12-18T08:53:29;3.60;;;2.40;;
10653;SDS011;5375;51.250;6.776;2022-12-18T08:55:56;2.80;;;2.40;;
10653;SDS011;5375;51.250;6.776;2022-12-18T08:58:22;3.23;;;2.40;;
10653;SDS011;5375;51.250;6.776;2022-12-18T09:00:48;3.57;;;2.27;;
10653;SDS011;5375;51.250;6.776;2022-12-18T09:03:15;3.53;;;2.93;;
10653;SDS011;5375;51.250;6.776;2022-12-18T09:05:42;3.23;;;2.60;;
10653;SDS011;5375;51.250;6.776;2022-12-18T09:08:08;3.90;;;2.50;;
10653;SDS011;5375;51.250;6.776;2022-12-18T09:10:34;5.70;;;2.47;;
10653;SDS011;5375;51.250;6.776;2022-12-18T09:13:00;3.53;;;2.37;;
10653;SDS011;5375;51.250;6.776;2022-12-18T09:15:26;4.60;;;3.03;;
10653;SDS011;5375;51.250;6.776;2022-12-18T09:17:52;3.57;;;2.50;;
10653;SDS011;5375;51.250;6.776;2022-12-18T09:20:18;3.50;;;2.90;;
10653;SDS011;5375;51.250;6.776;2022-12-18T09:22:44;5.90;;;2.50;;
10653;SDS011;5375;51.250;6.776;2022-12-18T09:25:10;4.97;;;2.70;;
10653;SDS011;5375;51.250;6.776;2022-12-18T09:27:36;3.37;;;2.40;;
10653;SDS011;5375;51.250;6.776;2022-12-18T09:30:04;4.63;;;2.50;;
10653;SDS011;5375;51.250;6.776;2022-12-18T09:32:30;4.10;;;2.60;;
10653;SDS011;5375;51.250;6.776;2022-12-18T09:34:56;7.20;;;2.60;;
10653;SDS011;5375;51.250;6.776;2022-12-18T09:37:22;4.37;;;2.40;;
10653;SDS011;5375;51.250;6.776;2022-12-18T09:39:48;4.03;;;2.20;;
10653;SDS011;5375;51.250;6.776;2022-12-18T09:42:21;4.10;;;2.30;;
10653;SDS011;5375;51.250;6.776;2022-12-18T09:44:52;4.40;;;2.33;;
10653;SDS011;5375;51.250;6.776;2022-12-18T09:47:20;8.63;;;2.40;;
10653;SDS011;5375;51.250;6.776;2022-12-18T09:49:49;11.57;;;2.17;;
10653;SDS011;5375;51.250;6.776;2022-12-18T09:54:47;2.60;;;2.10;;
10653;SDS011;5375;51.250;6.776;2022-12-18T09:57:15;6.47;;;2.60;;
10653;SDS011;5375;51.250;6.776;2022-12-18T09:59:44;5.73;;;3.97;;
10653;SDS011;5375;51.250;6.776;2022-12-18T10:02:19;9.20;;;6.07;;
10653;SDS011;5375;51.250;6.776;2022-12-18T10:04:57;15.93;;;11.63;;
10653;SDS011;5375;51.250;6.776;2022-12-18T10:07:40;21.27;;;17.07;;
10653;SDS011;5375;51.250;6.776;2022-12-18T10:10:17;23.10;;;19.50;;
10653;SDS011;5375;51.250;6.776;2022-12-18T10:15:17;29.43;;;23.87;;
10653;SDS011;5375;51.250;6.776;2022-12-18T10:17:47;27.90;;;23.57;;
10653;SDS011;5375;51.250;6.776;2022-12-18T10:22:46;28.80;;;25.67;;
10653;SDS011;5375;51.250;6.776;2022-12-18T10:25:51;30.90;;;26.00;;
10653;SDS011;5375;51.250;6.776;2022-12-18T10:28:09;32.27;;;26.57;;
10653;SDS011;5375;51.250;6.776;2022-12-18T10:30:36;31.40;;;26.43;;
10653;SDS011;5375;51.250;6.776;2022-12-18T10:33:04;34.67;;;26.47;;
10653;SDS011;5375;51.250;6.776;2022-12-18T10:35:30;31.27;;;25.87;;
10653;SDS011;5375;51.250;6.776;2022-12-18T10:38:06;30.20;;;26.50;;
10653;SDS011;5375;51.250;6.776;2022-12-18T10:40:33;31.20;;;25.60;;
10653;SDS011;5375;51.250;6.776;2022-12-18T10:43:13;30.07;;;25.30;;
10653;SDS011;5375;51.250;6.776;2022-12-18T10:45:40;31.17;;;24.73;;
10653;SDS011;5375;51.250;6.776;2022-12-18T10:48:29;26.07;;;23.17;;
10653;SDS011;5375;51.250;6.776;2022-12-18T10:50:54;26.10;;;23.47;;
10653;SDS011;5375;51.250;6.776;2022-12-18T10:53:22;25.07;;;22.37;;
10653;SDS011;5375;51.250;6.776;2022-12-18T10:55:49;28.37;;;22.97;;
10653;SDS011;5375;51.250;6.776;2022-12-18T10:58:24;25.13;;;21.70;;
10653;SDS011;5375;51.250;6.776;2022-12-18T11:03:37;23.80;;;21.30;;
10653;SDS011;5375;51.250;6.776;2022-12-18T11:06:05;26.97;;;21.40;;
10653;SDS011;5375;51.250;6.776;2022-12-18T11:08:31;24.40;;;20.90;;
10653;SDS011;5375;51.250;6.776;2022-12-18T11:10:57;24.13;;;20.50;;
10653;SDS011;5375;51.250;6.776;2022-12-18T11:13:24;22.13;;;19.27;;
10653;SDS011;5375;51.250;6.776;2022-12-18T11:15:51;22.07;;;19.77;;
10653;SDS011;5375;51.250;6.776;2022-12-18T11:18:19;22.67;;;20.13;;
10653;SDS011;5375;51.250;6.776;2022-12-18T11:21:19;23.40;;;18.47;;
10653;SDS011;5375;51.250;6.776;2022-12-18T11:23:44;22.50;;;18.13;;
10653;SDS011;5375;51.250;6.776;2022-12-18T11:26:11;22.23;;;17.77;;
10653;SDS011;5375;51.250;6.776;2022-12-18T11:33:34;19.73;;;17.10;;
10653;SDS011;5375;51.250;6.776;2022-12-18T11:36:02;17.53;;;15.73;;
10653;SDS011;5375;51.250;6.776;2022-12-18T11:38:30;16.73;;;15.07;;
10653;SDS011;5375;51.250;6.776;2022-12-18T11:41:00;17.57;;;15.63;;
10653;SDS011;5375;51.250;6.776;2022-12-18T11:44:13;20.67;;;15.63;;
10653;SDS011;5375;51.250;6.776;2022-12-18T11:46:14;16.47;;;14.77;;
10653;SDS011;5375;51.250;6.776;2022-12-18T11:51:28;18.10;;;14.27;;
10653;SDS011;5375;51.250;6.776;2022-12-18T11:53:55;16.57;;;14.13;;
10653;SDS011;5375;51.250;6.776;2022-12-18T11:56:39;16.83;;;14.17;;
10653;SDS011;5375;51.250;6.776;2022-12-18T12:01:53;15.90;;;14.10;;
10653;SDS011;5375;51.250;6.776;2022-12-18T12:14:42;14.87;;;13.27;;
10653;SDS011;5375;51.250;6.776;2022-12-18T12:17:17;13.87;;;12.37;;
10653;SDS011;5375;51.250;6.776;2022-12-18T12:20:08;14.03;;;12.43;;
10653;SDS011;5375;51.250;6.776;2022-12-18T12:22:50;14.20;;;12.23;;
10653;SDS011;5375;51.250;6.776;2022-12-18T12:25:21;13.53;;;12.00;;
10653;SDS011;5375;51.250;6.776;2022-12-18T12:28:00;14.43;;;12.13;;
10653;SDS011;5375;51.250;6.776;2022-12-18T12:38:34;12.90;;;11.17;;
10653;SDS011;5375;51.250;6.776;2022-12-18T12:41:02;13.13;;;11.30;;
10653;SDS011;5375;51.250;6.776;2022-12-18T12:46:05;12.30;;;10.53;;
10653;SDS011;5375;51.250;6.776;2022-12-18T12:48:39;13.93;;;11.90;;
10653;SDS011;5375;51.250;6.776;2022-12-18T12:51:17;11.87;;;10.23;;
10653;SDS011;5375;51.250;6.776;2022-12-18T12:53:45;14.83;;;10.73;;
10653;SDS011;5375;51.250;6.776;2022-12-18T12:56:12;12.23;;;10.93;;
10653;SDS011;5375;51.250;6.776;2022-12-18T13:01:09;11.20;;;10.10;;
10653;SDS011;5375;51.250;6.776;2022-12-18T13:06:12;11.27;;;10.10;;
10653;SDS011;5375;51.250;6.776;2022-12-18T13:08:52;11.20;;;10.10;;
10653;SDS011;5375;51.250;6.776;2022-12-18T13:11:41;14.17;;;10.20;;
10653;SDS011;5375;51.250;6.776;2022-12-18T13:14:27;11.10;;;9.53;;
10653;SDS011;5375;51.250;6.776;2022-12-18T13:19:39;14.20;;;9.60;;
10653;SDS011;5375;51.250;6.776;2022-12-18T13:22:19;10.97;;;9.10;;
10653;SDS011;5375;51.250;6.776;2022-12-18T13:24:46;10.47;;;8.90;;
10653;SDS011;5375;51.250;6.776;2022-12-18T13:29:57;10.47;;;9.37;;
10653;SDS011;5375;51.250;6.776;2022-12-18T13:32:24;10.67;;;9.40;;
10653;SDS011;5375;51.250;6.776;2022-12-18T13:37:39;10.20;;;9.10;;
10653;SDS011;5375;51.250;6.776;2022-12-18T13:40:25;9.93;;;8.73;;
10653;SDS011;5375;51.250;6.776;2022-12-18T13:42:52;9.37;;;8.47;;
10653;SDS011;5375;51.250;6.776;2022-12-18T13:45:41;10.07;;;8.93;;
10653;SDS011;5375;51.250;6.776;2022-12-18T13:48:18;9.97;;;8.60;;
10653;SDS011;5375;51.250;6.776;2022-12-18T13:50:48;9.37;;;8.40;;
10653;SDS011;5375;51.250;6.776;2022-12-18T13:53:25;9.60;;;8.33;;
10653;SDS011;5375;51.250;6.776;2022-12-18T13:55:52;9.63;;;8.30;;
10653;SDS011;5375;51.250;6.776;2022-12-18T13:58:18;8.70;;;7.80;;
10653;SDS011;5375;51.250;6.776;2022-12-18T14:00:44;9.07;;;8.17;;
10653;SDS011;5375;51.250;6.776;2022-12-18T14:03:21;8.60;;;7.80;;
10653;SDS011;5375;51.250;6.776;2022-12-18T14:06:10;8.87;;;7.97;;
10653;SDS011;5375;51.250;6.776;2022-12-18T14:08:38;9.20;;;8.20;;
10653;SDS011;5375;51.250;6.776;2022-12-18T14:11:05;8.23;;;7.43;;
10653;SDS011;5375;51.250;6.776;2022-12-18T14:13:33;9.67;;;7.60;;
10653;SDS011;5375;51.250;6.776;2022-12-18T14:16:01;8.03;;;7.20;;
10653;SDS011;5375;51.250;6.776;2022-12-18T14:21:04;8.47;;;7.67;;
10653;SDS011;5375;51.250;6.776;2022-12-18T14:23:34;10.20;;;7.13;;
10653;SDS011;5375;51.250;6.776;2022-12-18T14:26:01;7.87;;;7.07;;
10653;SDS011;5375;51.250;6.776;2022-12-18T14:28:28;8.33;;;7.33;;
10653;SDS011;5375;51.250;6.776;2022-12-18T14:30:54;8.17;;;7.20;;
10653;SDS011;5375;51.250;6.776;2022-12-18T14:33:24;8.73;;;7.47;;
10653;SDS011;5375;51.250;6.776;2022-12-18T14:36:01;7.73;;;6.93;;
10653;SDS011;5375;51.250;6.776;2022-12-18T14:38:28;7.77;;;6.90;;
10653;SDS011;5375;51.250;6.776;2022-12-18T14:40:58;7.43;;;6.77;;
10653;SDS011;5375;51.250;6.776;2022-12-18T14:43:26;8.40;;;6.93;;
10653;SDS011;5375;51.250;6.776;2022-12-18T14:45:52;9.13;;;7.10;;
10653;SDS011;5375;51.250;6.776;2022-12-18T14:48:19;7.23;;;6.60;;
10653;SDS011;5375;51.250;6.776;2022-12-18T14:50:53;7.77;;;6.20;;
10653;SDS011;5375;51.250;6.776;2022-12-18T14:53:22;8.20;;;6.90;;
10653;SDS011;5375;51.250;6.776;2022-12-18T14:55:49;7.50;;;6.70;;
10653;SDS011;5375;51.250;6.776;2022-12-18T14:58:15;7.57;;;6.77;;
10653;SDS011;5375;51.250;6.776;2022-12-18T15:00:41;7.40;;;6.70;;
10653;SDS011;5375;51.250;6.776;2022-12-18T15:03:07;6.90;;;6.20;;
10653;SDS011;5375;51.250;6.776;2022-12-18T15:05:34;7.40;;;6.70;;
10653;SDS011;5375;51.250;6.776;2022-12-18T15:08:01;7.93;;;6.20;;
10653;SDS011;5375;51.250;6.776;2022-12-18T15:10:28;6.97;;;6.23;;
10653;SDS011;5375;51.250;6.776;2022-12-18T15:20:49;6.97;;;6.27;;
10653;SDS011;5375;51.250;6.776;2022-12-18T15:23:16;6.87;;;5.97;;
10653;SDS011;5375;51.250;6.776;2022-12-18T15:25:43;6.50;;;5.83;;
10653;SDS011;5375;51.250;6.776;2022-12-18T15:33:29;7.97;;;6.03;;
10653;SDS011;5375;51.250;6.776;2022-12-18T15:35:56;6.93;;;6.20;;
10653;SDS011;5375;51.250;6.776;2022-12-18T15:38:22;6.63;;;5.67;;
10653;SDS011;5375;51.250;6.776;2022-12-18T15:40:49;6.97;;;6.07;;
10653;SDS011;5375;51.250;6.776;2022-12-18T15:43:15;7.00;;;5.70;;
10653;SDS011;5375;51.250;6.776;2022-12-18T15:46:03;11.97;;;5.80;;
10653;SDS011;5375;51.250;6.776;2022-12-18T15:48:30;6.30;;;5.70;;
10653;SDS011;5375;51.250;6.776;2022-12-18T15:50:57;7.43;;;6.67;;
10653;SDS011;5375;51.250;6.776;2022-12-18T15:53:24;8.50;;;5.90;;
10653;SDS011;5375;51.250;6.776;2022-12-18T15:55:51;6.63;;;5.90;;
10653;SDS011;5375;51.250;6.776;2022-12-18T15:58:36;6.70;;;5.73;;
10653;SDS011;5375;51.250;6.776;2022-12-18T16:01:02;7.33;;;5.53;;
10653;SDS011;5375;51.250;6.776;2022-12-18T16:03:28;6.97;;;6.00;;
10653;SDS011;5375;51.250;6.776;2022-12-18T16:05:54;6.87;;;6.13;;
10653;SDS011;5375;51.250;6.776;2022-12-18T16:08:23;6.57;;;5.63;;
10653;SDS011;5375;51.250;6.776;2022-12-18T16:10:49;6.50;;;5.80;;
10653;SDS011;5375;51.250;6.776;2022-12-18T16:13:15;6.40;;;5.70;;
10653;SDS011;5375;51.250;6.776;2022-12-18T16:15:42;7.77;;;5.80;;
10653;SDS011;5375;51.250;6.776;2022-12-18T16:18:08;5.93;;;5.33;;
10653;SDS011;5375;51.250;6.776;2022-12-18T16:20:34;6.07;;;5.47;;
10653;SDS011;5375;51.250;6.776;2022-12-18T16:23:00;6.27;;;5.60;;
10653;SDS011;5375;51.250;6.776;2022-12-18T16:25:26;7.53;;;5.13;;
10653;SDS011;5375;51.250;6.776;2022-12-18T16:27:53;6.77;;;5.90;;
10653;SDS011;5375;51.250;6.776;2022-12-18T16:30:29;5.80;;;5.17;;
10653;SDS011;5375;51.250;6.776;2022-12-18T16:32:56;5.80;;;5.23;;
10653;SDS011;5375;51.250;6.776;2022-12-18T16:35:24;7.17;;;5.00;;
10653;SDS011;5375;51.250;6.776;2022-12-18T16:37:51;5.80;;;5.20;;
10653;SDS011;5375;51.250;6.776;2022-12-18T16:40:17;7.47;;;5.30;;